createdAt,value
2023-03-29T00:01:52.421Z,95657.47
2023-03-29T00:04:19.331Z,95658.56
2023-03-29T00:06:46.750Z,95648.09
2023-03-29T00:09:14.603Z,95655.06
2023-03-29T00:11:42.248Z,95669.44
2023-03-29T00:14:11.188Z,95678.03
2023-03-29T00:16:38.016Z,95687.03
2023-03-29T00:19:05.519Z,95694.88
2023-03-29T00:21:32.193Z,95685.13
2023-03-29T00:23:59.281Z,95674.97
2023-03-29T00:26:25.878Z,95677.63
2023-03-29T00:28:52.541Z,95679.97
2023-03-29T00:31:19.245Z,95679.84
2023-03-29T00:33:46.109Z,95665.44
2023-03-29T00:36:13.269Z,95674.97
2023-03-29T00:38:40.257Z,95676.72
2023-03-29T00:41:09.096Z,95665.19
2023-03-29T00:43:58.550Z,95657.28
2023-03-29T00:46:27.324Z,95664.00
2023-03-29T00:49:00.389Z,95657.53
2023-03-29T00:51:32.631Z,95658.53
2023-03-29T00:54:03.746Z,95634.38
2023-03-29T00:56:38.650Z,95641.72
2023-03-29T00:59:11.057Z,95649.81
2023-03-29T01:01:50.943Z,95640.06
2023-03-29T01:04:40.906Z,95640.69
2023-03-29T01:07:11.947Z,95649.97
2023-03-29T01:09:42.996Z,95631.56
2023-03-29T01:12:22.213Z,95632.78
2023-03-29T01:14:56.563Z,95629.75
2023-03-29T01:17:23.521Z,95613.28
2023-03-29T01:19:59.629Z,95614.34
2023-03-29T01:23:06.396Z,95615.69
2023-03-29T01:25:56.144Z,95613.91
2023-03-29T01:28:40.778Z,95609.19
2023-03-29T01:31:24.549Z,95633.97
2023-03-29T01:34:01.212Z,95613.47
2023-03-29T01:36:36.102Z,95611.63
2023-03-29T01:39:06.601Z,95610.91
2023-03-29T01:42:07.133Z,95599.97
2023-03-29T01:44:55.295Z,95607.31
2023-03-29T01:47:58.477Z,95601.16
2023-03-29T01:50:58.272Z,95609.06
2023-03-29T01:54:06.563Z,95640.09
2023-03-29T01:56:40.140Z,95665.59
2023-03-29T01:59:29.543Z,95649.28
2023-03-29T02:02:02.488Z,95650.59
2023-03-29T02:04:34.317Z,95662.69
2023-03-29T02:07:04.826Z,95635.16
2023-03-29T02:09:35.297Z,95651.63
2023-03-29T02:12:08.874Z,95643.75
2023-03-29T02:14:35.867Z,95621.31
2023-03-29T02:17:16.677Z,95621.16
2023-03-29T02:19:47.093Z,95616.91
2023-03-29T02:22:19.080Z,95621.34
2023-03-29T02:24:49.231Z,95630.47
2023-03-29T02:27:15.948Z,95632.13
2023-03-29T02:29:42.718Z,95641.13
2023-03-29T02:32:20.266Z,95641.19
2023-03-29T02:34:56.118Z,95616.81
2023-03-29T02:37:27.718Z,95628.72
2023-03-29T02:39:54.866Z,95657.50
2023-03-29T02:42:24.548Z,95641.69
2023-03-29T02:44:56.673Z,95628.31
2023-03-29T02:47:33.072Z,95640.47
2023-03-29T02:50:00.714Z,95640.38
2023-03-29T02:52:34.824Z,95631.59
2023-03-29T02:55:06.780Z,95617.34
2023-03-29T02:57:33.401Z,95622.66
2023-03-29T03:00:01.019Z,95637.50
2023-03-29T03:02:28.008Z,95654.78
2023-03-29T03:04:54.704Z,95639.84
2023-03-29T03:07:21.477Z,95636.00
2023-03-29T03:09:48.096Z,95637.59
2023-03-29T03:12:15.030Z,95632.53
2023-03-29T03:14:41.722Z,95622.34
2023-03-29T03:17:08.514Z,95628.91
2023-03-29T03:19:35.104Z,95600.03
2023-03-29T03:22:01.860Z,95591.25
2023-03-29T03:24:28.491Z,95623.41
2023-03-29T03:26:55.087Z,95623.97
2023-03-29T03:29:21.744Z,95628.50
2023-03-29T03:31:48.456Z,95632.69
2023-03-29T03:34:15.169Z,95665.59
2023-03-29T03:36:41.910Z,95667.09
2023-03-29T03:39:09.495Z,95649.56
2023-03-29T03:41:36.137Z,95641.72
2023-03-29T03:44:02.760Z,95626.72
2023-03-29T03:46:29.736Z,95608.22
2023-03-29T03:48:57.243Z,95590.00
2023-03-29T03:51:23.962Z,95583.38
2023-03-29T03:53:50.609Z,95590.72
2023-03-29T03:56:17.202Z,95600.75
2023-03-29T03:58:43.987Z,95600.56
2023-03-29T04:01:10.601Z,95587.94
2023-03-29T04:03:37.389Z,95591.91
2023-03-29T04:06:04.641Z,95593.44
2023-03-29T04:08:31.277Z,95599.59
2023-03-29T04:10:59.820Z,95600.38
2023-03-29T04:13:27.218Z,95590.88
2023-03-29T04:15:55.076Z,95596.19
2023-03-29T04:18:22.693Z,95595.84
2023-03-29T04:20:50.185Z,95594.88
2023-03-29T04:23:17.120Z,95595.81
2023-03-29T04:25:43.999Z,95593.53
2023-03-29T04:28:12.088Z,95605.13
2023-03-29T04:30:39.090Z,95616.00
2023-03-29T04:33:05.712Z,95602.28
2023-03-29T04:35:32.509Z,95591.56
2023-03-29T04:37:59.281Z,95592.41
2023-03-29T04:40:25.933Z,95588.25
2023-03-29T04:42:52.561Z,95584.91
2023-03-29T04:45:19.254Z,95592.25
2023-03-29T04:47:46.207Z,95583.72
2023-03-29T04:50:13.568Z,95585.56
2023-03-29T04:52:40.241Z,95588.47
2023-03-29T04:55:07.266Z,95584.78
2023-03-29T04:57:33.866Z,95587.88
2023-03-29T05:00:00.621Z,95595.09
2023-03-29T05:02:27.514Z,95594.75
2023-03-29T05:04:54.162Z,95594.59
2023-03-29T05:07:20.784Z,95594.28
2023-03-29T05:09:47.482Z,95587.84
2023-03-29T05:12:14.103Z,95594.63
2023-03-29T05:14:40.728Z,95590.75
2023-03-29T05:17:07.297Z,95586.63
2023-03-29T05:19:33.951Z,95581.78
2023-03-29T05:22:02.618Z,95588.53
2023-03-29T05:24:29.217Z,95577.22
2023-03-29T05:26:55.893Z,95586.34
2023-03-29T05:29:22.516Z,95581.59
2023-03-29T05:31:49.508Z,95576.84
2023-03-29T05:34:16.136Z,95582.13
2023-03-29T05:36:42.778Z,95588.22
2023-03-29T05:39:09.463Z,95590.97
2023-03-29T05:41:36.090Z,95590.75
2023-03-29T05:44:02.803Z,95591.47
2023-03-29T05:46:29.416Z,95586.28
2023-03-29T05:48:56.028Z,95581.72
2023-03-29T05:51:22.643Z,95585.34
2023-03-29T05:53:49.357Z,95589.53
2023-03-29T05:56:16.107Z,95595.31
2023-03-29T05:58:43.035Z,95600.50
2023-03-29T06:01:13.622Z,95609.59
2023-03-29T06:03:41.132Z,95606.72
2023-03-29T06:06:08.142Z,95601.22
2023-03-29T06:08:34.786Z,95609.41
2023-03-29T06:11:05.042Z,95613.63
2023-03-29T06:13:33.188Z,95607.59
2023-03-29T06:16:00.422Z,95603.66
2023-03-29T06:18:27.512Z,95597.66
2023-03-29T06:20:54.160Z,95607.75
2023-03-29T06:23:22.397Z,95610.84
2023-03-29T06:25:49.129Z,95612.84
2023-03-29T06:28:15.763Z,95617.19
2023-03-29T06:30:42.616Z,95629.31
2023-03-29T06:33:09.805Z,95622.94
2023-03-29T06:35:37.246Z,95612.97
2023-03-29T06:38:04.691Z,95614.09
2023-03-29T06:40:31.819Z,95623.94
2023-03-29T06:42:58.660Z,95621.19
2023-03-29T06:45:29.342Z,95629.19
2023-03-29T06:47:56.341Z,95624.47
2023-03-29T06:50:23.199Z,95624.59
2023-03-29T06:52:50.201Z,95625.03
2023-03-29T06:55:16.851Z,95623.91
2023-03-29T06:57:43.641Z,95626.22
2023-03-29T07:00:11.613Z,95636.31
2023-03-29T07:02:38.665Z,95622.53
2023-03-29T07:05:05.477Z,95616.31
2023-03-29T07:07:32.172Z,95622.03
2023-03-29T07:09:58.925Z,95634.03
2023-03-29T07:12:25.547Z,95629.84
2023-03-29T07:14:52.941Z,95638.81
2023-03-29T07:17:19.593Z,95641.91
2023-03-29T07:19:46.201Z,95648.94
2023-03-29T07:22:12.838Z,95648.59
2023-03-29T07:24:39.440Z,95656.81
2023-03-29T07:27:06.113Z,95671.72
2023-03-29T07:29:32.865Z,95669.16
2023-03-29T07:31:59.531Z,95657.28
2023-03-29T07:34:26.166Z,95662.53
2023-03-29T07:36:53.009Z,95660.78
2023-03-29T07:39:19.650Z,95667.53
2023-03-29T07:41:48.202Z,95669.13
2023-03-29T07:44:14.796Z,95660.91
2023-03-29T07:46:43.880Z,95656.63
2023-03-29T07:49:10.496Z,95651.75
2023-03-29T07:51:37.141Z,95658.00
2023-03-29T07:54:03.769Z,95655.22
2023-03-29T07:56:30.524Z,95659.56
2023-03-29T07:58:57.229Z,95643.66
2023-03-29T08:01:24.269Z,95655.41
2023-03-29T08:03:51.006Z,95670.41
2023-03-29T08:06:18.792Z,95655.47
2023-03-29T08:08:45.426Z,95658.22
2023-03-29T08:11:12.046Z,95661.22
2023-03-29T08:13:38.674Z,95669.53
2023-03-29T08:16:05.742Z,95672.09
2023-03-29T08:18:34.713Z,95678.69
2023-03-29T08:21:02.068Z,95682.28
2023-03-29T08:23:28.900Z,95682.59
2023-03-29T08:25:55.492Z,95695.94
2023-03-29T08:28:22.221Z,95683.81
2023-03-29T08:30:49.016Z,95691.69
2023-03-29T08:33:15.837Z,95685.22
2023-03-29T08:35:42.651Z,95683.78
2023-03-29T08:38:09.413Z,95674.25
2023-03-29T08:40:36.694Z,95664.59
2023-03-29T08:43:19.819Z,95678.81
2023-03-29T08:45:50.888Z,95677.16
2023-03-29T08:48:31.775Z,95665.59
2023-03-29T08:51:09.364Z,95668.16
2023-03-29T08:53:43.516Z,95669.38
2023-03-29T08:56:26.389Z,95673.25
2023-03-29T08:58:57.264Z,95676.47
2023-03-29T09:01:27.522Z,95675.59
2023-03-29T09:04:07.283Z,95677.53
2023-03-29T09:06:34.293Z,95673.19
2023-03-29T09:09:02.072Z,95677.75
2023-03-29T09:11:45.794Z,95669.16
2023-03-29T09:14:49.470Z,95680.41
2023-03-29T09:17:16.025Z,95673.06
2023-03-29T09:19:48.968Z,95676.50
2023-03-29T09:23:00.125Z,95669.47
2023-03-29T09:25:54.433Z,95672.81
2023-03-29T09:28:51.637Z,95676.34
2023-03-29T09:31:35.030Z,95668.44
2023-03-29T09:34:15.332Z,95668.53
2023-03-29T09:36:54.750Z,95672.16
2023-03-29T09:39:22.572Z,95678.16
2023-03-29T09:42:04.483Z,95665.78
2023-03-29T09:44:38.614Z,95671.28
2023-03-29T09:47:17.390Z,95669.59
2023-03-29T09:49:49.304Z,95663.50
2023-03-29T09:52:18.661Z,95667.38
2023-03-29T09:54:45.379Z,95671.50
2023-03-29T09:57:16.158Z,95671.13
2023-03-29T09:59:43.834Z,95670.69
2023-03-29T10:02:13.475Z,95667.31
2023-03-29T10:04:41.564Z,95663.41
2023-03-29T10:07:16.485Z,95663.97
2023-03-29T10:09:46.200Z,95669.69
2023-03-29T10:12:14.673Z,95658.44
2023-03-29T10:14:45.429Z,95665.47
2023-03-29T10:17:24.401Z,95659.50
2023-03-29T10:19:56.344Z,95662.38
2023-03-29T10:22:26.872Z,95663.66
2023-03-29T10:24:56.696Z,95663.66
2023-03-29T10:27:32.336Z,95657.88
2023-03-29T10:30:07.935Z,95652.41
2023-03-29T10:32:37.481Z,95659.50
2023-03-29T10:35:07.274Z,95650.34
2023-03-29T10:37:33.958Z,95657.78
2023-03-29T10:40:00.660Z,95655.56
2023-03-29T10:42:28.584Z,95660.97
2023-03-29T10:44:59.679Z,95657.31
2023-03-29T10:47:31.951Z,95668.13
2023-03-29T10:49:58.576Z,95670.47
2023-03-29T10:52:25.586Z,95673.41
2023-03-29T10:54:56.001Z,95671.59
2023-03-29T10:57:49.638Z,95650.00
2023-03-29T11:00:28.339Z,95636.63
2023-03-29T11:03:10.286Z,95665.81
2023-03-29T11:06:06.641Z,95669.53
2023-03-29T11:08:50.253Z,95654.91
2023-03-29T11:11:41.054Z,95629.91
2023-03-29T11:14:36.306Z,95638.53
2023-03-29T11:17:46.468Z,95650.84
2023-03-29T11:20:27.085Z,95656.28
2023-03-29T11:23:32.105Z,95649.09
2023-03-29T11:26:01.400Z,95634.66
2023-03-29T11:28:42.147Z,95639.03
2023-03-29T11:31:32.812Z,95630.03
2023-03-29T11:34:14.671Z,95646.47
2023-03-29T11:36:46.903Z,95650.53
2023-03-29T11:39:41.196Z,95645.50
2023-03-29T11:42:16.722Z,95642.16
2023-03-29T11:44:47.780Z,95636.19
2023-03-29T11:47:20.264Z,95631.31
2023-03-29T11:50:15.126Z,95638.97
2023-03-29T11:52:54.423Z,95637.81
2023-03-29T11:55:29.001Z,95640.47
2023-03-29T11:58:10.496Z,95644.84
2023-03-29T12:00:48.752Z,95641.94
2023-03-29T12:03:24.486Z,95647.47
2023-03-29T12:06:15.637Z,95635.84
2023-03-29T12:08:55.051Z,95610.13
2023-03-29T12:11:24.220Z,95601.91
2023-03-29T12:14:05.690Z,95604.59
2023-03-29T12:16:47.959Z,95618.16
2023-03-29T12:19:21.464Z,95608.16
2023-03-29T12:21:49.535Z,95594.75
2023-03-29T12:24:19.412Z,95592.88
2023-03-29T12:27:04.726Z,95587.16
2023-03-29T12:29:37.361Z,95590.41
2023-03-29T12:32:32.018Z,95600.94
2023-03-29T12:35:37.487Z,95581.88
2023-03-29T12:38:18.403Z,95585.50
2023-03-29T12:40:55.967Z,95594.16
2023-03-29T12:43:32.980Z,95592.09
2023-03-29T12:46:17.217Z,95594.41
2023-03-29T12:48:48.643Z,95592.22
2023-03-29T12:51:21.066Z,95586.91
2023-03-29T12:53:56.646Z,95590.50
2023-03-29T12:56:38.897Z,95585.25
2023-03-29T12:59:24.078Z,95585.34
2023-03-29T13:02:05.639Z,95589.47
2023-03-29T13:04:50.936Z,95573.56
2023-03-29T13:07:23.632Z,95580.81
2023-03-29T13:09:51.613Z,95563.41
2023-03-29T13:12:27.852Z,95568.22
2023-03-29T13:14:59.477Z,95576.41
2023-03-29T13:17:33.340Z,95569.81
2023-03-29T13:20:21.594Z,95563.13
2023-03-29T13:23:00.061Z,95559.34
2023-03-29T13:25:39.226Z,95557.97
2023-03-29T13:28:21.229Z,95554.19
2023-03-29T13:31:25.060Z,95550.31
2023-03-29T13:34:12.892Z,95539.25
2023-03-29T13:37:11.309Z,95535.53
2023-03-29T13:39:52.393Z,95538.59
2023-03-29T13:42:25.276Z,95530.25
2023-03-29T13:44:53.287Z,95537.19
2023-03-29T13:47:25.784Z,95528.06
2023-03-29T13:49:57.857Z,95530.63
2023-03-29T13:52:30.606Z,95528.31
2023-03-29T13:55:14.129Z,95522.72
2023-03-29T13:57:48.240Z,95521.28
2023-03-29T14:00:50.671Z,95517.50
2023-03-29T14:03:22.345Z,95517.91
2023-03-29T14:05:56.396Z,95508.16
2023-03-29T14:08:30.211Z,95506.13
2023-03-29T14:11:00.657Z,95498.59
2023-03-29T14:13:29.399Z,95500.31
2023-03-29T14:16:02.034Z,95507.31
2023-03-29T14:18:36.910Z,95501.72
2023-03-29T14:21:04.325Z,95495.59
2023-03-29T14:23:34.164Z,95488.91
2023-03-29T14:26:18.874Z,95483.06
2023-03-29T14:28:45.431Z,95474.69
2023-03-29T14:31:19.910Z,95480.34
2023-03-29T14:33:52.664Z,95481.94
2023-03-29T14:36:20.536Z,95481.13
2023-03-29T14:38:53.154Z,95480.84
2023-03-29T14:41:21.995Z,95481.66
2023-03-29T14:43:51.185Z,95479.28
2023-03-29T14:46:21.299Z,95472.84
2023-03-29T14:48:48.481Z,95462.91
2023-03-29T14:51:15.600Z,95465.34
2023-03-29T14:53:43.334Z,95460.25
2023-03-29T14:56:15.308Z,95458.34
2023-03-29T14:58:45.869Z,95459.44
2023-03-29T15:01:21.683Z,95443.34
2023-03-29T15:03:57.492Z,95441.19
2023-03-29T15:06:26.213Z,95445.75
2023-03-29T15:09:04.289Z,95453.53
2023-03-29T15:11:33.429Z,95443.63
2023-03-29T15:14:12.531Z,95442.00
2023-03-29T15:16:43.926Z,95437.19
2023-03-29T15:19:19.400Z,95439.91
2023-03-29T15:21:49.470Z,95435.00
2023-03-29T15:24:23.843Z,95435.00
2023-03-29T15:27:10.950Z,95435.03
2023-03-29T15:29:41.388Z,95422.41
2023-03-29T15:32:09.693Z,95426.16
2023-03-29T15:34:36.417Z,95426.41
2023-03-29T15:37:03.142Z,95420.31
2023-03-29T15:39:30.317Z,95415.38
2023-03-29T15:41:59.302Z,95423.13
2023-03-29T15:44:33.201Z,95415.22
2023-03-29T15:47:01.809Z,95408.25
2023-03-29T15:49:29.292Z,95406.84
2023-03-29T15:51:55.938Z,95407.41
2023-03-29T15:54:23.655Z,95403.31
2023-03-29T15:57:01.356Z,95401.69
2023-03-29T15:59:28.128Z,95396.44
2023-03-29T16:01:54.944Z,95399.66
2023-03-29T16:04:22.560Z,95387.28
2023-03-29T16:06:51.804Z,95387.78
2023-03-29T16:09:19.125Z,95379.66
2023-03-29T16:11:47.179Z,95386.63
2023-03-29T16:14:22.792Z,95385.31
2023-03-29T16:17:09.793Z,95379.44
2023-03-29T16:19:36.449Z,95365.91
2023-03-29T16:22:04.538Z,95375.06
2023-03-29T16:24:32.665Z,95375.28
2023-03-29T16:27:03.844Z,95371.75
2023-03-29T16:29:31.136Z,95378.00
2023-03-29T16:31:58.525Z,95369.19
2023-03-29T16:34:25.266Z,95378.81
2023-03-29T16:36:52.778Z,95365.41
2023-03-29T16:39:19.429Z,95373.44
2023-03-29T16:41:46.236Z,95366.44
2023-03-29T16:44:17.349Z,95360.81
2023-03-29T16:46:44.872Z,95356.81
2023-03-29T16:49:14.016Z,95356.75
2023-03-29T16:51:40.684Z,95347.44
2023-03-29T16:54:07.306Z,95352.78
2023-03-29T16:56:33.911Z,95350.38
2023-03-29T16:59:00.558Z,95352.75
2023-03-29T17:01:27.186Z,95348.44
2023-03-29T17:03:53.866Z,95350.88
2023-03-29T17:06:20.664Z,95352.34
2023-03-29T17:08:47.346Z,95332.16
2023-03-29T17:11:14.084Z,95338.88
2023-03-29T17:13:40.753Z,95339.25
2023-03-29T17:16:07.833Z,95348.72
2023-03-29T17:18:34.551Z,95354.03
2023-03-29T17:21:01.163Z,95358.16
2023-03-29T17:23:27.873Z,95362.16
2023-03-29T17:25:55.290Z,95359.34
2023-03-29T17:28:22.621Z,95360.13
2023-03-29T17:30:49.384Z,95360.88
2023-03-29T17:33:18.183Z,95354.06
2023-03-29T17:35:45.959Z,95349.63
2023-03-29T17:38:12.646Z,95344.59
2023-03-29T17:40:39.272Z,95347.66
2023-03-29T17:43:05.938Z,95353.84
2023-03-29T17:45:32.573Z,95352.56
2023-03-29T17:47:59.316Z,95351.34
2023-03-29T17:50:25.971Z,95350.38
2023-03-29T17:52:52.557Z,95344.28
2023-03-29T17:55:19.373Z,95344.91
2023-03-29T17:57:47.828Z,95339.78
2023-03-29T18:00:15.568Z,95342.31
2023-03-29T18:02:50.827Z,95345.47
2023-03-29T18:05:17.495Z,95351.44
2023-03-29T18:07:44.117Z,95351.44
2023-03-29T18:10:10.976Z,95344.97
2023-03-29T18:12:37.616Z,95343.25
2023-03-29T18:15:04.794Z,95343.25
2023-03-29T18:17:31.724Z,95334.56
2023-03-29T18:19:58.339Z,95342.84
2023-03-29T18:22:24.933Z,95349.47
2023-03-29T18:24:51.702Z,95348.22
2023-03-29T18:27:18.884Z,95356.66
2023-03-29T18:29:45.578Z,95361.28
2023-03-29T18:32:13.557Z,95361.28
2023-03-29T18:34:40.364Z,95353.44
2023-03-29T18:37:07.098Z,95350.38
2023-03-29T18:39:33.940Z,95342.88
2023-03-29T18:42:00.574Z,95336.16
2023-03-29T18:44:28.801Z,95336.78
2023-03-29T18:46:55.643Z,95344.84
2023-03-29T18:49:22.292Z,95342.16
2023-03-29T18:51:48.931Z,95347.13
2023-03-29T18:54:15.545Z,95346.22
2023-03-29T18:56:42.156Z,95347.94
2023-03-29T18:59:09.106Z,95360.34
2023-03-29T19:01:39.226Z,95356.00
2023-03-29T19:04:05.986Z,95354.78
2023-03-29T19:06:35.162Z,95365.88
2023-03-29T19:09:02.322Z,95370.91
2023-03-29T19:11:29.212Z,95370.13
2023-03-29T19:13:55.954Z,95373.59
2023-03-29T19:16:22.764Z,95371.56
2023-03-29T19:18:49.564Z,95369.41
2023-03-29T19:21:16.220Z,95372.66
2023-03-29T19:23:42.906Z,95372.63
2023-03-29T19:26:10.184Z,95372.59
2023-03-29T19:28:37.072Z,95382.81
2023-03-29T19:31:04.374Z,95387.97
2023-03-29T19:33:31.619Z,95378.19
2023-03-29T19:35:58.379Z,95376.13
2023-03-29T19:38:24.993Z,95381.81
2023-03-29T19:40:52.058Z,95386.28
2023-03-29T19:43:19.654Z,95379.16
2023-03-29T19:45:51.012Z,95383.75
2023-03-29T19:48:23.171Z,95384.06
2023-03-29T19:50:50.696Z,95372.53
2023-03-29T19:53:17.462Z,95370.97
2023-03-29T19:55:44.329Z,95370.56
2023-03-29T19:58:11.059Z,95372.44
2023-03-29T20:00:37.813Z,95365.72
2023-03-29T20:03:04.818Z,95362.38
2023-03-29T20:05:31.562Z,95359.38
2023-03-29T20:07:58.206Z,95362.28
2023-03-29T20:10:24.995Z,95351.84
2023-03-29T20:12:51.740Z,95353.06
2023-03-29T20:15:18.832Z,95347.66
2023-03-29T20:17:45.557Z,95352.38
2023-03-29T20:20:12.517Z,95350.09
2023-03-29T20:22:39.722Z,95343.25
2023-03-29T20:25:06.529Z,95357.09
2023-03-29T20:27:33.171Z,95353.94
2023-03-29T20:29:59.797Z,95345.91
2023-03-29T20:32:26.472Z,95348.66
2023-03-29T20:34:53.138Z,95345.38
2023-03-29T20:37:19.918Z,95339.91
2023-03-29T20:39:46.528Z,95334.59
2023-03-29T20:42:13.121Z,95335.19
2023-03-29T20:44:39.780Z,95329.84
2023-03-29T20:47:06.406Z,95335.78
2023-03-29T20:49:35.420Z,95331.97
2023-03-29T20:52:02.141Z,95340.91
2023-03-29T20:54:28.820Z,95345.56
2023-03-29T20:56:55.461Z,95339.34
2023-03-29T20:59:22.133Z,95341.88
2023-03-29T21:01:48.806Z,95342.59
2023-03-29T21:04:16.235Z,95331.88
2023-03-29T21:06:42.856Z,95335.16
2023-03-29T21:09:09.532Z,95342.94
2023-03-29T21:11:36.471Z,95341.59
2023-03-29T21:14:03.163Z,95345.41
2023-03-29T21:16:29.888Z,95342.91
2023-03-29T21:18:56.554Z,95344.78
2023-03-29T21:21:23.160Z,95341.97
2023-03-29T21:23:49.792Z,95344.09
2023-03-29T21:26:16.403Z,95344.09
2023-03-29T21:28:43.176Z,95332.91
2023-03-29T21:31:09.931Z,95329.91
2023-03-29T21:33:36.645Z,95324.16
2023-03-29T21:36:03.393Z,95319.53
2023-03-29T21:38:30.119Z,95327.28
2023-03-29T21:40:56.713Z,95324.47
2023-03-29T21:43:23.499Z,95329.16
2023-03-29T21:45:50.622Z,95325.69
2023-03-29T21:48:18.241Z,95321.91
2023-03-29T21:50:49.269Z,95329.59
2023-03-29T21:53:15.912Z,95324.19
2023-03-29T21:55:42.526Z,95324.03
2023-03-29T21:58:09.238Z,95316.38
2023-03-29T22:00:35.868Z,95320.34
2023-03-29T22:03:02.658Z,95323.19
2023-03-29T22:05:29.277Z,95311.41
2023-03-29T22:07:55.891Z,95311.44
2023-03-29T22:10:22.510Z,95302.06
2023-03-29T22:12:50.280Z,95306.25
2023-03-29T22:15:18.698Z,95302.22
2023-03-29T22:17:45.287Z,95304.22
2023-03-29T22:20:12.517Z,95298.59
2023-03-29T22:22:43.021Z,95289.19
2023-03-29T22:25:10.355Z,95285.47
2023-03-29T22:27:37.697Z,95276.84
2023-03-29T22:30:05.877Z,95275.69
2023-03-29T22:32:32.783Z,95276.56
2023-03-29T22:34:59.388Z,95279.38
2023-03-29T22:37:26.037Z,95282.72
2023-03-29T22:39:53.751Z,95275.28
2023-03-29T22:42:20.340Z,95270.69
2023-03-29T22:44:46.963Z,95270.50
2023-03-29T22:47:13.656Z,95268.34
2023-03-29T22:49:40.266Z,95273.31
2023-03-29T22:52:06.963Z,95264.25
2023-03-29T22:54:33.660Z,95262.69
2023-03-29T22:57:00.349Z,95256.19
2023-03-29T22:59:27.026Z,95261.94
2023-03-29T23:01:54.268Z,95257.94
2023-03-29T23:04:23.272Z,95255.94
2023-03-29T23:06:49.969Z,95265.31
2023-03-29T23:09:16.741Z,95258.00
2023-03-29T23:11:43.385Z,95257.84
2023-03-29T23:14:10.108Z,95251.97
2023-03-29T23:16:36.720Z,95257.59
2023-03-29T23:19:03.762Z,95254.59
2023-03-29T23:21:32.668Z,95251.56
2023-03-29T23:23:59.460Z,95244.72
2023-03-29T23:26:26.200Z,95242.59
2023-03-29T23:28:52.904Z,95225.63
2023-03-29T23:31:19.973Z,95226.75
2023-03-29T23:33:49.529Z,95213.09
2023-03-29T23:36:18.273Z,95197.16
2023-03-29T23:38:46.645Z,95196.53
2023-03-29T23:41:13.352Z,95192.72
2023-03-29T23:43:42.588Z,95194.34
2023-03-29T23:46:17.614Z,95209.63
2023-03-29T23:48:48.909Z,95205.19
2023-03-29T23:51:16.974Z,95211.25
2023-03-29T23:53:43.561Z,95198.81
2023-03-29T23:56:10.317Z,95187.06
2023-03-29T23:58:37.836Z,95188.53
